sensor_id;sensor_type;location;lat;lon;timestamp;temperature;humidity
975;DHT22;6115;49.296;10.602;2022-07-06T00:03:25;17.30;45.30
975;DHT22;6115;49.296;10.602;2022-07-06T00:08:26;17.30;45.50
975;DHT22;6115;49.296;10.602;2022-07-06T00:13:27;17.20;45.80
975;DHT22;6115;49.296;10.602;2022-07-06T00:18:28;17.20;46.10
975;DHT22;6115;49.296;10.602;2022-07-06T00:23:28;17.10;46.30
975;DHT22;6115;49.296;10.602;2022-07-06T00:28:29;17.00;46.40
975;DHT22;6115;49.296;10.602;2022-07-06T00:33:29;17.00;46.70
975;DHT22;6115;49.296;10.602;2022-07-06T00:38:30;16.90;47.00
975;DHT22;6115;49.296;10.602;2022-07-06T00:48:47;16.90;47.40
975;DHT22;6115;49.296;10.602;2022-07-06T00:53:48;16.80;47.30
975;DHT22;6115;49.296;10.602;2022-07-06T00:58:49;16.80;47.30
975;DHT22;6115;49.296;10.602;2022-07-06T01:03:50;16.70;47.20
975;DHT22;6115;49.296;10.602;2022-07-06T01:08:50;16.70;47.20
975;DHT22;6115;49.296;10.602;2022-07-06T01:13:52;16.80;47.30
975;DHT22;6115;49.296;10.602;2022-07-06T01:18:53;16.70;47.20
975;DHT22;6115;49.296;10.602;2022-07-06T01:23:53;16.70;47.30
975;DHT22;6115;49.296;10.602;2022-07-06T01:28:54;16.70;47.60
975;DHT22;6115;49.296;10.602;2022-07-06T01:33:55;16.60;47.50
975;DHT22;6115;49.296;10.602;2022-07-06T01:38:57;16.60;47.60
975;DHT22;6115;49.296;10.602;2022-07-06T01:43:58;16.60;47.60
975;DHT22;6115;49.296;10.602;2022-07-06T01:48:59;16.70;47.80
975;DHT22;6115;49.296;10.602;2022-07-06T01:54:00;16.60;48.10
975;DHT22;6115;49.296;10.602;2022-07-06T01:59:00;16.60;48.30
975;DHT22;6115;49.296;10.602;2022-07-06T02:04:01;16.60;48.20
975;DHT22;6115;49.296;10.602;2022-07-06T02:09:02;16.60;48.20
975;DHT22;6115;49.296;10.602;2022-07-06T02:14:02;16.50;48.30
975;DHT22;6115;49.296;10.602;2022-07-06T02:19:03;16.50;48.40
975;DHT22;6115;49.296;10.602;2022-07-06T02:24:04;16.50;48.50
975;DHT22;6115;49.296;10.602;2022-07-06T02:29:04;16.50;48.80
975;DHT22;6115;49.296;10.602;2022-07-06T02:34:05;16.50;48.80
975;DHT22;6115;49.296;10.602;2022-07-06T02:39:05;16.50;48.50
975;DHT22;6115;49.296;10.602;2022-07-06T02:44:06;16.40;48.60
975;DHT22;6115;49.296;10.602;2022-07-06T02:49:07;16.30;48.80
975;DHT22;6115;49.296;10.602;2022-07-06T02:54:07;16.40;49.70
975;DHT22;6115;49.296;10.602;2022-07-06T02:59:08;16.40;49.00
975;DHT22;6115;49.296;10.602;2022-07-06T03:04:08;16.40;49.20
975;DHT22;6115;49.296;10.602;2022-07-06T03:09:09;16.40;49.20
975;DHT22;6115;49.296;10.602;2022-07-06T03:14:09;16.30;49.20
975;DHT22;6115;49.296;10.602;2022-07-06T03:19:10;16.30;49.50
975;DHT22;6115;49.296;10.602;2022-07-06T03:24:10;16.30;49.60
975;DHT22;6115;49.296;10.602;2022-07-06T03:29:11;16.20;49.80
975;DHT22;6115;49.296;10.602;2022-07-06T03:34:12;16.20;50.00
975;DHT22;6115;49.296;10.602;2022-07-06T03:39:12;16.20;50.10
975;DHT22;6115;49.296;10.602;2022-07-06T03:44:13;16.20;50.20
975;DHT22;6115;49.296;10.602;2022-07-06T03:49:13;16.20;50.20
975;DHT22;6115;49.296;10.602;2022-07-06T03:54:14;16.20;50.20
975;DHT22;6115;49.296;10.602;2022-07-06T03:59:14;16.20;50.20
975;DHT22;6115;49.296;10.602;2022-07-06T04:04:15;16.10;50.50
975;DHT22;6115;49.296;10.602;2022-07-06T04:09:16;16.10;50.90
975;DHT22;6115;49.296;10.602;2022-07-06T04:14:16;16.10;51.20
975;DHT22;6115;49.296;10.602;2022-07-06T04:19:17;16.00;51.10
975;DHT22;6115;49.296;10.602;2022-07-06T04:24:17;16.00;51.10
975;DHT22;6115;49.296;10.602;2022-07-06T04:29:18;16.10;51.20
975;DHT22;6115;49.296;10.602;2022-07-06T04:34:18;16.20;51.10
975;DHT22;6115;49.296;10.602;2022-07-06T04:39:19;16.30;50.80
975;DHT22;6115;49.296;10.602;2022-07-06T04:44:19;16.30;50.80
975;DHT22;6115;49.296;10.602;2022-07-06T04:49:20;16.30;50.70
975;DHT22;6115;49.296;10.602;2022-07-06T04:54:21;16.40;50.50
975;DHT22;6115;49.296;10.602;2022-07-06T04:59:21;16.40;50.30
975;DHT22;6115;49.296;10.602;2022-07-06T05:04:22;16.50;50.40
975;DHT22;6115;49.296;10.602;2022-07-06T05:09:23;16.50;51.60
975;DHT22;6115;49.296;10.602;2022-07-06T05:14:24;16.50;50.80
975;DHT22;6115;49.296;10.602;2022-07-06T05:19:25;16.50;50.90
975;DHT22;6115;49.296;10.602;2022-07-06T05:24:25;16.60;51.00
975;DHT22;6115;49.296;10.602;2022-07-06T05:29:26;16.70;50.70
975;DHT22;6115;49.296;10.602;2022-07-06T05:34:26;16.80;50.60
975;DHT22;6115;49.296;10.602;2022-07-06T05:39:27;16.80;50.40
975;DHT22;6115;49.296;10.602;2022-07-06T05:44:27;16.90;49.90
975;DHT22;6115;49.296;10.602;2022-07-06T05:49:28;17.10;49.90
975;DHT22;6115;49.296;10.602;2022-07-06T05:54:47;17.20;49.10
975;DHT22;6115;49.296;10.602;2022-07-06T05:59:48;17.20;49.20
975;DHT22;6115;49.296;10.602;2022-07-06T06:04:48;17.40;48.90
975;DHT22;6115;49.296;10.602;2022-07-06T06:09:49;17.50;49.20
975;DHT22;6115;49.296;10.602;2022-07-06T06:14:49;17.50;49.00
975;DHT22;6115;49.296;10.602;2022-07-06T06:19:50;17.60;49.20
975;DHT22;6115;49.296;10.602;2022-07-06T06:24:51;17.80;49.30
975;DHT22;6115;49.296;10.602;2022-07-06T06:29:51;17.90;48.00
975;DHT22;6115;49.296;10.602;2022-07-06T06:34:52;18.10;48.30
975;DHT22;6115;49.296;10.602;2022-07-06T06:39:52;18.20;47.80
975;DHT22;6115;49.296;10.602;2022-07-06T06:44:53;18.40;46.90
975;DHT22;6115;49.296;10.602;2022-07-06T06:49:53;18.50;46.70
975;DHT22;6115;49.296;10.602;2022-07-06T06:54:54;18.60;45.50
975;DHT22;6115;49.296;10.602;2022-07-06T06:59:55;18.80;45.50
975;DHT22;6115;49.296;10.602;2022-07-06T07:04:55;18.90;45.20
975;DHT22;6115;49.296;10.602;2022-07-06T07:09:56;19.00;45.30
975;DHT22;6115;49.296;10.602;2022-07-06T07:14:57;19.20;44.70
975;DHT22;6115;49.296;10.602;2022-07-06T07:19:57;19.40;44.30
975;DHT22;6115;49.296;10.602;2022-07-06T07:24:58;19.40;43.40
975;DHT22;6115;49.296;10.602;2022-07-06T07:29:59;19.40;43.50
975;DHT22;6115;49.296;10.602;2022-07-06T07:35:00;19.60;42.40
975;DHT22;6115;49.296;10.602;2022-07-06T07:40:01;19.80;41.20
975;DHT22;6115;49.296;10.602;2022-07-06T07:45:03;19.90;40.60
975;DHT22;6115;49.296;10.602;2022-07-06T07:50:04;20.00;40.80
975;DHT22;6115;49.296;10.602;2022-07-06T07:55:05;20.10;40.80
975;DHT22;6115;49.296;10.602;2022-07-06T08:00:07;20.20;40.90
975;DHT22;6115;49.296;10.602;2022-07-06T08:05:08;20.20;40.80
975;DHT22;6115;49.296;10.602;2022-07-06T08:10:09;20.40;40.40
975;DHT22;6115;49.296;10.602;2022-07-06T08:15:13;20.40;39.50
975;DHT22;6115;49.296;10.602;2022-07-06T08:20:14;20.50;40.90
975;DHT22;6115;49.296;10.602;2022-07-06T08:25:14;20.70;40.50
975;DHT22;6115;49.296;10.602;2022-07-06T08:30:15;20.80;39.30
975;DHT22;6115;49.296;10.602;2022-07-06T08:35:16;21.00;39.10
975;DHT22;6115;49.296;10.602;2022-07-06T08:40:16;21.00;39.40
975;DHT22;6115;49.296;10.602;2022-07-06T08:45:17;21.10;38.40
975;DHT22;6115;49.296;10.602;2022-07-06T08:50:18;21.30;38.70
975;DHT22;6115;49.296;10.602;2022-07-06T08:55:20;21.30;38.80
975;DHT22;6115;49.296;10.602;2022-07-06T09:00:22;21.60;38.50
975;DHT22;6115;49.296;10.602;2022-07-06T09:05:23;21.80;37.40
975;DHT22;6115;49.296;10.602;2022-07-06T09:10:24;22.00;38.10
975;DHT22;6115;49.296;10.602;2022-07-06T09:15:29;21.90;37.60
975;DHT22;6115;49.296;10.602;2022-07-06T09:20:31;22.10;36.40
975;DHT22;6115;49.296;10.602;2022-07-06T09:25:32;22.50;36.40
975;DHT22;6115;49.296;10.602;2022-07-06T09:30:33;22.90;36.80
975;DHT22;6115;49.296;10.602;2022-07-06T09:35:37;23.10;34.60
975;DHT22;6115;49.296;10.602;2022-07-06T09:40:41;23.20;34.50
975;DHT22;6115;49.296;10.602;2022-07-06T09:45:47;23.20;34.50
975;DHT22;6115;49.296;10.602;2022-07-06T09:50:54;23.70;34.20
975;DHT22;6115;49.296;10.602;2022-07-06T09:55:56;23.50;34.70
975;DHT22;6115;49.296;10.602;2022-07-06T10:00:58;23.60;34.20
975;DHT22;6115;49.296;10.602;2022-07-06T10:05:59;23.60;35.90
975;DHT22;6115;49.296;10.602;2022-07-06T10:11:00;23.70;35.20
975;DHT22;6115;49.296;10.602;2022-07-06T10:16:01;23.70;34.20
975;DHT22;6115;49.296;10.602;2022-07-06T10:21:02;23.60;34.10
975;DHT22;6115;49.296;10.602;2022-07-06T10:26:04;23.50;35.00
975;DHT22;6115;49.296;10.602;2022-07-06T10:31:06;24.00;34.50
975;DHT22;6115;49.296;10.602;2022-07-06T10:36:07;24.20;33.70
975;DHT22;6115;49.296;10.602;2022-07-06T10:41:08;23.70;34.20
975;DHT22;6115;49.296;10.602;2022-07-06T10:46:18;24.30;34.20
975;DHT22;6115;49.296;10.602;2022-07-06T10:51:26;24.40;33.90
975;DHT22;6115;49.296;10.602;2022-07-06T10:56:33;25.40;32.60
975;DHT22;6115;49.296;10.602;2022-07-06T11:01:36;25.30;32.10
975;DHT22;6115;49.296;10.602;2022-07-06T11:06:38;24.70;32.90
975;DHT22;6115;49.296;10.602;2022-07-06T11:11:41;24.90;34.90
975;DHT22;6115;49.296;10.602;2022-07-06T11:21:53;24.20;34.10
975;DHT22;6115;49.296;10.602;2022-07-06T11:26:57;24.80;32.30
975;DHT22;6115;49.296;10.602;2022-07-06T11:31:59;24.50;30.80
975;DHT22;6115;49.296;10.602;2022-07-06T11:37:12;24.40;32.70
975;DHT22;6115;49.296;10.602;2022-07-06T11:42:17;24.80;32.70
975;DHT22;6115;49.296;10.602;2022-07-06T11:47:18;25.00;32.80
975;DHT22;6115;49.296;10.602;2022-07-06T11:52:21;25.30;31.20
975;DHT22;6115;49.296;10.602;2022-07-06T11:57:23;25.40;30.60
975;DHT22;6115;49.296;10.602;2022-07-06T12:02:24;25.30;30.70
975;DHT22;6115;49.296;10.602;2022-07-06T12:07:25;25.50;31.10
975;DHT22;6115;49.296;10.602;2022-07-06T12:12:25;25.50;30.70
975;DHT22;6115;49.296;10.602;2022-07-06T12:17:26;25.60;30.80
975;DHT22;6115;49.296;10.602;2022-07-06T12:22:26;25.00;30.40
975;DHT22;6115;49.296;10.602;2022-07-06T12:27:27;25.50;30.70
975;DHT22;6115;49.296;10.602;2022-07-06T12:32:27;25.30;31.00
975;DHT22;6115;49.296;10.602;2022-07-06T12:37:28;25.20;31.60
975;DHT22;6115;49.296;10.602;2022-07-06T12:42:28;25.80;32.60
975;DHT22;6115;49.296;10.602;2022-07-06T12:47:29;26.50;31.10
975;DHT22;6115;49.296;10.602;2022-07-06T12:52:30;25.90;30.40
975;DHT22;6115;49.296;10.602;2022-07-06T12:57:43;25.50;30.40
975;DHT22;6115;49.296;10.602;2022-07-06T13:02:45;25.40;31.00
975;DHT22;6115;49.296;10.602;2022-07-06T13:07:48;26.10;30.00
975;DHT22;6115;49.296;10.602;2022-07-06T13:12:50;26.00;29.60
975;DHT22;6115;49.296;10.602;2022-07-06T13:17:50;25.90;29.30
975;DHT22;6115;49.296;10.602;2022-07-06T13:22:51;26.20;29.00
975;DHT22;6115;49.296;10.602;2022-07-06T13:27:51;25.80;29.40
975;DHT22;6115;49.296;10.602;2022-07-06T13:32:52;25.50;30.40
975;DHT22;6115;49.296;10.602;2022-07-06T13:37:52;25.40;29.80
975;DHT22;6115;49.296;10.602;2022-07-06T13:42:53;25.10;30.40
975;DHT22;6115;49.296;10.602;2022-07-06T13:47:54;25.90;29.50
975;DHT22;6115;49.296;10.602;2022-07-06T13:52:55;25.80;29.20
975;DHT22;6115;49.296;10.602;2022-07-06T13:57:56;25.40;29.60
975;DHT22;6115;49.296;10.602;2022-07-06T14:02:56;26.00;29.80
975;DHT22;6115;49.296;10.602;2022-07-06T14:07:57;26.30;29.10
975;DHT22;6115;49.296;10.602;2022-07-06T14:12:57;26.80;28.60
975;DHT22;6115;49.296;10.602;2022-07-06T14:17:58;26.60;28.30
975;DHT22;6115;49.296;10.602;2022-07-06T14:22:59;27.10;28.00
975;DHT22;6115;49.296;10.602;2022-07-06T14:27:59;26.40;27.90
975;DHT22;6115;49.296;10.602;2022-07-06T14:33:00;26.00;28.40
975;DHT22;6115;49.296;10.602;2022-07-06T14:38:03;26.20;29.60
975;DHT22;6115;49.296;10.602;2022-07-06T14:43:03;27.30;26.30
975;DHT22;6115;49.296;10.602;2022-07-06T14:48:04;26.50;27.20
975;DHT22;6115;49.296;10.602;2022-07-06T14:53:05;26.30;28.50
975;DHT22;6115;49.296;10.602;2022-07-06T14:58:06;27.20;27.00
975;DHT22;6115;49.296;10.602;2022-07-06T15:03:06;26.10;27.10
975;DHT22;6115;49.296;10.602;2022-07-06T15:08:07;26.70;27.40
975;DHT22;6115;49.296;10.602;2022-07-06T15:13:08;27.50;26.30
975;DHT22;6115;49.296;10.602;2022-07-06T15:18:08;27.20;26.60
975;DHT22;6115;49.296;10.602;2022-07-06T15:23:09;26.70;27.10
975;DHT22;6115;49.296;10.602;2022-07-06T15:28:09;27.20;26.20
975;DHT22;6115;49.296;10.602;2022-07-06T15:33:10;26.80;26.50
975;DHT22;6115;49.296;10.602;2022-07-06T15:38:10;25.70;27.00
975;DHT22;6115;49.296;10.602;2022-07-06T15:43:11;25.30;28.00
975;DHT22;6115;49.296;10.602;2022-07-06T15:48:11;25.50;28.40
975;DHT22;6115;49.296;10.602;2022-07-06T15:53:12;25.60;27.00
975;DHT22;6115;49.296;10.602;2022-07-06T15:58:13;25.40;27.70
975;DHT22;6115;49.296;10.602;2022-07-06T16:03:13;25.50;27.50
975;DHT22;6115;49.296;10.602;2022-07-06T16:08:14;25.80;26.90
975;DHT22;6115;49.296;10.602;2022-07-06T16:13:14;25.80;26.90
975;DHT22;6115;49.296;10.602;2022-07-06T16:18:15;25.60;26.80
975;DHT22;6115;49.296;10.602;2022-07-06T16:23:16;24.90;27.10
975;DHT22;6115;49.296;10.602;2022-07-06T16:28:16;24.80;28.40
975;DHT22;6115;49.296;10.602;2022-07-06T16:33:17;24.60;27.90
975;DHT22;6115;49.296;10.602;2022-07-06T16:38:18;24.70;28.20
975;DHT22;6115;49.296;10.602;2022-07-06T16:43:19;24.70;28.00
975;DHT22;6115;49.296;10.602;2022-07-06T16:48:19;24.40;27.50
975;DHT22;6115;49.296;10.602;2022-07-06T16:53:20;24.10;28.40
975;DHT22;6115;49.296;10.602;2022-07-06T16:58:21;24.10;28.30
975;DHT22;6115;49.296;10.602;2022-07-06T17:03:21;24.00;28.30
975;DHT22;6115;49.296;10.602;2022-07-06T17:08:22;23.60;28.60
975;DHT22;6115;49.296;10.602;2022-07-06T17:13:22;23.60;28.60
975;DHT22;6115;49.296;10.602;2022-07-06T17:18:23;23.70;28.80
975;DHT22;6115;49.296;10.602;2022-07-06T17:23:24;23.50;28.60
975;DHT22;6115;49.296;10.602;2022-07-06T17:28:25;23.30;29.00
975;DHT22;6115;49.296;10.602;2022-07-06T17:33:25;23.10;29.00
975;DHT22;6115;49.296;10.602;2022-07-06T17:38:26;23.00;29.10
975;DHT22;6115;49.296;10.602;2022-07-06T17:43:27;22.80;28.90
975;DHT22;6115;49.296;10.602;2022-07-06T17:48:28;22.60;29.50
975;DHT22;6115;49.296;10.602;2022-07-06T17:53:28;22.50;29.70
975;DHT22;6115;49.296;10.602;2022-07-06T17:58:29;22.40;30.00
975;DHT22;6115;49.296;10.602;2022-07-06T18:03:29;22.40;30.00
975;DHT22;6115;49.296;10.602;2022-07-06T18:08:30;22.20;30.50
975;DHT22;6115;49.296;10.602;2022-07-06T18:13:31;22.10;30.20
975;DHT22;6115;49.296;10.602;2022-07-06T18:18:33;22.00;30.10
975;DHT22;6115;49.296;10.602;2022-07-06T18:23:33;21.90;30.30
975;DHT22;6115;49.296;10.602;2022-07-06T18:28:34;21.80;30.30
975;DHT22;6115;49.296;10.602;2022-07-06T18:33:35;21.70;30.50
975;DHT22;6115;49.296;10.602;2022-07-06T18:38:36;21.60;30.40
975;DHT22;6115;49.296;10.602;2022-07-06T18:43:36;21.50;30.30
975;DHT22;6115;49.296;10.602;2022-07-06T18:48:37;21.50;29.90
975;DHT22;6115;49.296;10.602;2022-07-06T18:53:37;21.30;30.00
975;DHT22;6115;49.296;10.602;2022-07-06T18:58:39;21.20;30.20
975;DHT22;6115;49.296;10.602;2022-07-06T19:03:39;21.20;30.20
975;DHT22;6115;49.296;10.602;2022-07-06T19:08:41;21.10;30.70
975;DHT22;6115;49.296;10.602;2022-07-06T19:13:42;21.00;31.10
975;DHT22;6115;49.296;10.602;2022-07-06T19:18:42;20.90;31.20
975;DHT22;6115;49.296;10.602;2022-07-06T19:23:44;20.90;31.30
975;DHT22;6115;49.296;10.602;2022-07-06T19:28:45;20.90;31.80
975;DHT22;6115;49.296;10.602;2022-07-06T19:33:45;20.60;31.50
975;DHT22;6115;49.296;10.602;2022-07-06T19:38:46;20.40;31.40
975;DHT22;6115;49.296;10.602;2022-07-06T19:43:46;20.40;31.40
975;DHT22;6115;49.296;10.602;2022-07-06T19:48:47;20.30;31.90
975;DHT22;6115;49.296;10.602;2022-07-06T19:53:47;20.20;32.10
975;DHT22;6115;49.296;10.602;2022-07-06T19:58:51;20.10;32.40
975;DHT22;6115;49.296;10.602;2022-07-06T20:03:52;20.00;32.90
975;DHT22;6115;49.296;10.602;2022-07-06T20:08:52;20.00;32.90
975;DHT22;6115;49.296;10.602;2022-07-06T20:13:54;19.90;33.10
975;DHT22;6115;49.296;10.602;2022-07-06T20:18:55;19.90;33.50
975;DHT22;6115;49.296;10.602;2022-07-06T20:23:56;19.90;33.90
975;DHT22;6115;49.296;10.602;2022-07-06T20:28:56;19.70;34.00
975;DHT22;6115;49.296;10.602;2022-07-06T20:33:57;19.60;34.40
975;DHT22;6115;49.296;10.602;2022-07-06T20:38:58;19.30;34.90
975;DHT22;6115;49.296;10.602;2022-07-06T20:43:58;19.00;35.50
975;DHT22;6115;49.296;10.602;2022-07-06T20:48:59;18.80;36.10
975;DHT22;6115;49.296;10.602;2022-07-06T20:53:59;18.70;36.10
975;DHT22;6115;49.296;10.602;2022-07-06T20:59:00;18.50;36.60
975;DHT22;6115;49.296;10.602;2022-07-06T21:04:01;18.50;36.80
975;DHT22;6115;49.296;10.602;2022-07-06T21:09:03;18.40;37.30
975;DHT22;6115;49.296;10.602;2022-07-06T21:14:03;18.30;37.60
975;DHT22;6115;49.296;10.602;2022-07-06T21:19:04;18.20;38.00
975;DHT22;6115;49.296;10.602;2022-07-06T21:24:05;18.10;38.70
975;DHT22;6115;49.296;10.602;2022-07-06T21:29:06;18.10;38.80
975;DHT22;6115;49.296;10.602;2022-07-06T21:34:07;17.90;39.50
975;DHT22;6115;49.296;10.602;2022-07-06T21:39:07;17.80;38.80
975;DHT22;6115;49.296;10.602;2022-07-06T21:44:08;17.70;38.70
975;DHT22;6115;49.296;10.602;2022-07-06T21:49:09;17.60;39.10
975;DHT22;6115;49.296;10.602;2022-07-06T21:54:09;17.50;39.20
975;DHT22;6115;49.296;10.602;2022-07-06T21:59:10;17.50;39.70
975;DHT22;6115;49.296;10.602;2022-07-06T22:04:10;17.40;40.00
975;DHT22;6115;49.296;10.602;2022-07-06T22:09:11;17.20;40.20
975;DHT22;6115;49.296;10.602;2022-07-06T22:14:12;17.10;40.40
975;DHT22;6115;49.296;10.602;2022-07-06T22:19:12;17.00;40.80
975;DHT22;6115;49.296;10.602;2022-07-06T22:24:13;16.90;41.00
975;DHT22;6115;49.296;10.602;2022-07-06T22:29:13;16.70;41.40
975;DHT22;6115;49.296;10.602;2022-07-06T22:34:14;16.60;41.90
975;DHT22;6115;49.296;10.602;2022-07-06T22:39:15;16.50;42.10
975;DHT22;6115;49.296;10.602;2022-07-06T22:44:15;16.50;42.40
975;DHT22;6115;49.296;10.602;2022-07-06T22:49:16;16.40;42.30
975;DHT22;6115;49.296;10.602;2022-07-06T22:54:16;16.30;42.30
975;DHT22;6115;49.296;10.602;2022-07-06T22:59:17;16.20;42.70
975;DHT22;6115;49.296;10.602;2022-07-06T23:04:17;16.20;43.00
975;DHT22;6115;49.296;10.602;2022-07-06T23:09:18;16.20;43.30
975;DHT22;6115;49.296;10.602;2022-07-06T23:14:19;16.10;43.50
975;DHT22;6115;49.296;10.602;2022-07-06T23:19:20;16.00;43.80
975;DHT22;6115;49.296;10.602;2022-07-06T23:24:21;16.00;43.90
975;DHT22;6115;49.296;10.602;2022-07-06T23:29:21;16.00;44.00
975;DHT22;6115;49.296;10.602;2022-07-06T23:34:22;16.00;44.10
975;DHT22;6115;49.296;10.602;2022-07-06T23:39:22;15.90;44.20
975;DHT22;6115;49.296;10.602;2022-07-06T23:44:23;16.00;44.60
975;DHT22;6115;49.296;10.602;2022-07-06T23:49:24;15.90;44.40
975;DHT22;6115;49.296;10.602;2022-07-06T23:54:24;15.80;44.40
975;DHT22;6115;49.296;10.602;2022-07-06T23:59:25;15.80;44.70
